sensor_id;sensor_type;location;lat;lon;timestamp;P1;durP1;ratioP1;P2;durP2;ratioP2
16033;SDS011;8121;51.418;6.998;2023-12-14T00:03:36;23.67;;;11.73;;
16033;SDS011;8121;51.418;6.998;2023-12-14T00:08:38;54.27;;;13.60;;
16033;SDS011;8121;51.418;6.998;2023-12-14T00:13:40;29.83;;;13.17;;
16033;SDS011;8121;51.418;6.998;2023-12-14T00:18:43;30.03;;;12.87;;
16033;SDS011;8121;51.418;6.998;2023-12-14T00:23:44;24.63;;;12.10;;
16033;SDS011;8121;51.418;6.998;2023-12-14T00:28:46;25.47;;;12.60;;
16033;SDS011;8121;51.418;6.998;2023-12-14T00:33:49;19.60;;;9.87;;
16033;SDS011;8121;51.418;6.998;2023-12-14T00:38:50;19.60;;;10.70;;
16033;SDS011;8121;51.418;6.998;2023-12-14T00:43:52;32.20;;;13.03;;
16033;SDS011;8121;51.418;6.998;2023-12-14T00:48:55;19.67;;;10.53;;
16033;SDS011;8121;51.418;6.998;2023-12-14T00:53:56;20.53;;;9.77;;
16033;SDS011;8121;51.418;6.998;2023-12-14T00:58:58;20.00;;;10.03;;
16033;SDS011;8121;51.418;6.998;2023-12-14T01:04:01;20.73;;;10.50;;
16033;SDS011;8121;51.418;6.998;2023-12-14T01:09:02;15.03;;;8.27;;
16033;SDS011;8121;51.418;6.998;2023-12-14T01:14:04;13.57;;;8.33;;
16033;SDS011;8121;51.418;6.998;2023-12-14T01:19:06;16.40;;;8.97;;
16033;SDS011;8121;51.418;6.998;2023-12-14T01:24:08;15.80;;;8.67;;
16033;SDS011;8121;51.418;6.998;2023-12-14T01:29:09;9.63;;;7.77;;
16033;SDS011;8121;51.418;6.998;2023-12-14T01:34:12;10.60;;;6.50;;
16033;SDS011;8121;51.418;6.998;2023-12-14T01:39:15;8.63;;;6.07;;
16033;SDS011;8121;51.418;6.998;2023-12-14T01:44:17;8.70;;;5.97;;
16033;SDS011;8121;51.418;6.998;2023-12-14T01:49:20;8.70;;;5.07;;
16033;SDS011;8121;51.418;6.998;2023-12-14T01:54:21;10.03;;;5.97;;
16033;SDS011;8121;51.418;6.998;2023-12-14T01:59:22;12.33;;;5.90;;
16033;SDS011;8121;51.418;6.998;2023-12-14T02:04:25;8.37;;;5.60;;
16033;SDS011;8121;51.418;6.998;2023-12-14T02:09:27;11.40;;;6.73;;
16033;SDS011;8121;51.418;6.998;2023-12-14T02:14:28;13.53;;;7.67;;
16033;SDS011;8121;51.418;6.998;2023-12-14T02:19:31;11.40;;;7.90;;
16033;SDS011;8121;51.418;6.998;2023-12-14T02:24:34;18.67;;;9.87;;
16033;SDS011;8121;51.418;6.998;2023-12-14T02:29:35;22.37;;;11.73;;
16033;SDS011;8121;51.418;6.998;2023-12-14T02:34:37;16.40;;;10.40;;
16033;SDS011;8121;51.418;6.998;2023-12-14T02:39:40;21.40;;;11.20;;
16033;SDS011;8121;51.418;6.998;2023-12-14T02:44:41;16.93;;;10.70;;
16033;SDS011;8121;51.418;6.998;2023-12-14T02:49:43;30.10;;;12.00;;
16033;SDS011;8121;51.418;6.998;2023-12-14T02:54:46;20.53;;;11.80;;
16033;SDS011;8121;51.418;6.998;2023-12-14T02:59:48;24.20;;;11.90;;
16033;SDS011;8121;51.418;6.998;2023-12-14T03:04:49;25.80;;;11.57;;
16033;SDS011;8121;51.418;6.998;2023-12-14T03:09:52;30.30;;;14.27;;
16033;SDS011;8121;51.418;6.998;2023-12-14T03:14:53;31.30;;;16.17;;
16033;SDS011;8121;51.418;6.998;2023-12-14T03:19:55;27.57;;;15.40;;
16033;SDS011;8121;51.418;6.998;2023-12-14T03:24:58;27.10;;;13.77;;
16033;SDS011;8121;51.418;6.998;2023-12-14T03:29:59;30.30;;;13.47;;
16033;SDS011;8121;51.418;6.998;2023-12-14T03:35:01;23.07;;;12.97;;
16033;SDS011;8121;51.418;6.998;2023-12-14T03:40:05;43.50;;;13.43;;
16033;SDS011;8121;51.418;6.998;2023-12-14T03:45:07;62.77;;;16.47;;
16033;SDS011;8121;51.418;6.998;2023-12-14T03:50:10;31.33;;;14.87;;
16033;SDS011;8121;51.418;6.998;2023-12-14T03:55:14;48.43;;;15.80;;
16033;SDS011;8121;51.418;6.998;2023-12-14T04:00:16;32.70;;;15.33;;
16033;SDS011;8121;51.418;6.998;2023-12-14T04:05:17;30.13;;;14.43;;
16033;SDS011;8121;51.418;6.998;2023-12-14T04:10:20;24.30;;;9.60;;
16033;SDS011;8121;51.418;6.998;2023-12-14T04:15:22;14.10;;;8.90;;
16033;SDS011;8121;51.418;6.998;2023-12-14T04:20:23;17.27;;;8.47;;
16033;SDS011;8121;51.418;6.998;2023-12-14T04:25:26;16.20;;;8.33;;
16033;SDS011;8121;51.418;6.998;2023-12-14T04:30:28;15.30;;;9.03;;
16033;SDS011;8121;51.418;6.998;2023-12-14T04:35:29;16.30;;;8.10;;
16033;SDS011;8121;51.418;6.998;2023-12-14T04:40:32;22.90;;;10.53;;
16033;SDS011;8121;51.418;6.998;2023-12-14T04:45:34;22.63;;;11.70;;
16033;SDS011;8121;51.418;6.998;2023-12-14T04:56:34;21.50;;;11.93;;
16033;SDS011;8121;51.418;6.998;2023-12-14T05:01:36;22.90;;;11.43;;
16033;SDS011;8121;51.418;6.998;2023-12-14T05:06:37;25.30;;;11.10;;
16033;SDS011;8121;51.418;6.998;2023-12-14T05:11:40;25.60;;;10.70;;
16033;SDS011;8121;51.418;6.998;2023-12-14T05:16:42;28.23;;;11.30;;
16033;SDS011;8121;51.418;6.998;2023-12-14T05:27:42;22.03;;;11.37;;
16033;SDS011;8121;51.418;6.998;2023-12-14T05:32:44;15.80;;;8.17;;
16033;SDS011;8121;51.418;6.998;2023-12-14T05:37:45;19.07;;;9.50;;
16033;SDS011;8121;51.418;6.998;2023-12-14T05:42:48;11.20;;;7.20;;
16033;SDS011;8121;51.418;6.998;2023-12-14T05:47:49;17.87;;;9.47;;
16033;SDS011;8121;51.418;6.998;2023-12-14T05:52:51;21.17;;;9.00;;
16033;SDS011;8121;51.418;6.998;2023-12-14T05:57:54;21.70;;;11.20;;
16033;SDS011;8121;51.418;6.998;2023-12-14T06:02:56;26.40;;;12.83;;
16033;SDS011;8121;51.418;6.998;2023-12-14T06:07:58;24.03;;;10.50;;
16033;SDS011;8121;51.418;6.998;2023-12-14T06:13:01;22.90;;;10.87;;
16033;SDS011;8121;51.418;6.998;2023-12-14T06:18:02;17.50;;;9.60;;
16033;SDS011;8121;51.418;6.998;2023-12-14T06:23:05;28.47;;;11.53;;
16033;SDS011;8121;51.418;6.998;2023-12-14T06:28:07;26.27;;;12.17;;
16033;SDS011;8121;51.418;6.998;2023-12-14T06:33:09;26.17;;;12.97;;
16033;SDS011;8121;51.418;6.998;2023-12-14T06:38:10;33.20;;;13.77;;
16033;SDS011;8121;51.418;6.998;2023-12-14T06:43:14;33.13;;;13.70;;
16033;SDS011;8121;51.418;6.998;2023-12-14T06:48:15;29.00;;;14.80;;
16033;SDS011;8121;51.418;6.998;2023-12-14T06:53:17;36.43;;;14.93;;
16033;SDS011;8121;51.418;6.998;2023-12-14T06:58:20;34.30;;;16.03;;
16033;SDS011;8121;51.418;6.998;2023-12-14T07:03:21;34.10;;;14.70;;
16033;SDS011;8121;51.418;6.998;2023-12-14T07:08:23;41.80;;;17.80;;
16033;SDS011;8121;51.418;6.998;2023-12-14T07:13:26;38.07;;;16.93;;
16033;SDS011;8121;51.418;6.998;2023-12-14T07:18:27;38.73;;;17.07;;
16033;SDS011;8121;51.418;6.998;2023-12-14T07:23:29;30.37;;;14.83;;
16033;SDS011;8121;51.418;6.998;2023-12-14T07:28:32;33.87;;;17.57;;
16033;SDS011;8121;51.418;6.998;2023-12-14T07:33:34;43.10;;;18.70;;
16033;SDS011;8121;51.418;6.998;2023-12-14T07:38:35;38.63;;;16.83;;
16033;SDS011;8121;51.418;6.998;2023-12-14T07:43:38;34.70;;;14.17;;
16033;SDS011;8121;51.418;6.998;2023-12-14T07:48:40;28.47;;;14.13;;
16033;SDS011;8121;51.418;6.998;2023-12-14T07:53:41;17.30;;;8.97;;
16033;SDS011;8121;51.418;6.998;2023-12-14T07:58:44;27.77;;;13.10;;
16033;SDS011;8121;51.418;6.998;2023-12-14T08:03:45;22.00;;;9.97;;
16033;SDS011;8121;51.418;6.998;2023-12-14T08:08:47;27.83;;;15.17;;
16033;SDS011;8121;51.418;6.998;2023-12-14T08:13:50;37.37;;;15.37;;
16033;SDS011;8121;51.418;6.998;2023-12-14T08:18:51;35.20;;;17.70;;
16033;SDS011;8121;51.418;6.998;2023-12-14T08:23:52;43.50;;;20.67;;
16033;SDS011;8121;51.418;6.998;2023-12-14T08:28:55;40.33;;;17.30;;
16033;SDS011;8121;51.418;6.998;2023-12-14T08:33:57;22.27;;;12.23;;
16033;SDS011;8121;51.418;6.998;2023-12-14T08:38:58;40.07;;;17.10;;
16033;SDS011;8121;51.418;6.998;2023-12-14T08:44:01;37.63;;;18.47;;
16033;SDS011;8121;51.418;6.998;2023-12-14T08:49:03;36.70;;;16.43;;
16033;SDS011;8121;51.418;6.998;2023-12-14T08:54:04;34.43;;;16.33;;
16033;SDS011;8121;51.418;6.998;2023-12-14T08:59:07;32.50;;;15.80;;
16033;SDS011;8121;51.418;6.998;2023-12-14T09:04:09;34.50;;;14.93;;
16033;SDS011;8121;51.418;6.998;2023-12-14T09:09:11;34.53;;;17.00;;
16033;SDS011;8121;51.418;6.998;2023-12-14T09:14:14;34.73;;;17.57;;
16033;SDS011;8121;51.418;6.998;2023-12-14T09:19:16;36.37;;;16.43;;
16033;SDS011;8121;51.418;6.998;2023-12-14T09:24:18;41.70;;;19.77;;
16033;SDS011;8121;51.418;6.998;2023-12-14T09:29:21;50.10;;;21.07;;
16033;SDS011;8121;51.418;6.998;2023-12-14T09:34:23;169.40;;;72.50;;
16033;SDS011;8121;51.418;6.998;2023-12-14T09:39:24;51.67;;;21.30;;
16033;SDS011;8121;51.418;6.998;2023-12-14T09:44:29;41.23;;;18.87;;
16033;SDS011;8121;51.418;6.998;2023-12-14T09:49:30;44.43;;;18.03;;
16033;SDS011;8121;51.418;6.998;2023-12-14T09:54:32;40.50;;;19.43;;
16033;SDS011;8121;51.418;6.998;2023-12-14T09:59:35;33.93;;;17.70;;
16033;SDS011;8121;51.418;6.998;2023-12-14T10:04:36;36.40;;;17.60;;
16033;SDS011;8121;51.418;6.998;2023-12-14T10:09:38;32.27;;;16.17;;
16033;SDS011;8121;51.418;6.998;2023-12-14T10:14:41;33.40;;;16.87;;
16033;SDS011;8121;51.418;6.998;2023-12-14T10:19:42;32.97;;;17.30;;
16033;SDS011;8121;51.418;6.998;2023-12-14T10:24:44;27.70;;;13.33;;
16033;SDS011;8121;51.418;6.998;2023-12-14T10:29:47;30.40;;;14.60;;
16033;SDS011;8121;51.418;6.998;2023-12-14T10:34:50;24.20;;;11.83;;
16033;SDS011;8121;51.418;6.998;2023-12-14T10:39:52;25.10;;;14.37;;
16033;SDS011;8121;51.418;6.998;2023-12-14T10:44:56;28.07;;;16.00;;
16033;SDS011;8121;51.418;6.998;2023-12-14T10:49:58;25.90;;;12.90;;
16033;SDS011;8121;51.418;6.998;2023-12-14T10:55:02;21.77;;;10.10;;
16033;SDS011;8121;51.418;6.998;2023-12-14T11:00:09;20.60;;;11.70;;
16033;SDS011;8121;51.418;6.998;2023-12-14T11:05:12;17.57;;;9.40;;
16033;SDS011;8121;51.418;6.998;2023-12-14T11:10:19;20.80;;;11.03;;
16033;SDS011;8121;51.418;6.998;2023-12-14T11:15:24;20.30;;;9.93;;
16033;SDS011;8121;51.418;6.998;2023-12-14T11:20:27;13.43;;;8.23;;
16033;SDS011;8121;51.418;6.998;2023-12-14T11:25:29;22.67;;;10.60;;
16033;SDS011;8121;51.418;6.998;2023-12-14T11:30:31;16.70;;;8.97;;
16033;SDS011;8121;51.418;6.998;2023-12-14T11:35:33;13.57;;;8.70;;
16033;SDS011;8121;51.418;6.998;2023-12-14T11:40:35;17.53;;;8.50;;
16033;SDS011;8121;51.418;6.998;2023-12-14T11:45:39;15.20;;;8.80;;
16033;SDS011;8121;51.418;6.998;2023-12-14T11:50:41;17.27;;;8.90;;
16033;SDS011;8121;51.418;6.998;2023-12-14T11:55:43;15.73;;;6.83;;
16033;SDS011;8121;51.418;6.998;2023-12-14T12:00:47;9.50;;;6.03;;
16033;SDS011;8121;51.418;6.998;2023-12-14T12:05:50;12.20;;;7.17;;
16033;SDS011;8121;51.418;6.998;2023-12-14T12:10:52;10.63;;;6.60;;
16033;SDS011;8121;51.418;6.998;2023-12-14T12:15:55;17.00;;;9.07;;
16033;SDS011;8121;51.418;6.998;2023-12-14T12:20:56;19.63;;;10.43;;
16033;SDS011;8121;51.418;6.998;2023-12-14T12:26:00;16.77;;;9.67;;
16033;SDS011;8121;51.418;6.998;2023-12-14T12:31:03;13.77;;;6.90;;
16033;SDS011;8121;51.418;6.998;2023-12-14T12:36:05;11.80;;;6.60;;
16033;SDS011;8121;51.418;6.998;2023-12-14T12:41:07;10.40;;;6.97;;
16033;SDS011;8121;51.418;6.998;2023-12-14T12:46:10;7.70;;;6.37;;
16033;SDS011;8121;51.418;6.998;2023-12-14T12:51:11;13.87;;;6.73;;
16033;SDS011;8121;51.418;6.998;2023-12-14T12:56:13;11.40;;;6.37;;
16033;SDS011;8121;51.418;6.998;2023-12-14T13:01:16;11.00;;;5.27;;
16033;SDS011;8121;51.418;6.998;2023-12-14T13:06:17;11.50;;;6.53;;
16033;SDS011;8121;51.418;6.998;2023-12-14T13:11:19;14.13;;;6.67;;
16033;SDS011;8121;51.418;6.998;2023-12-14T13:16:21;9.90;;;6.60;;
16033;SDS011;8121;51.418;6.998;2023-12-14T13:21:23;11.60;;;7.23;;
16033;SDS011;8121;51.418;6.998;2023-12-14T13:26:24;16.43;;;8.37;;
16033;SDS011;8121;51.418;6.998;2023-12-14T13:31:27;25.60;;;9.97;;
16033;SDS011;8121;51.418;6.998;2023-12-14T13:36:29;16.93;;;8.23;;
16033;SDS011;8121;51.418;6.998;2023-12-14T13:41:30;12.30;;;6.70;;
16033;SDS011;8121;51.418;6.998;2023-12-14T13:46:36;17.47;;;7.00;;
16033;SDS011;8121;51.418;6.998;2023-12-14T13:51:37;8.13;;;5.97;;
16033;SDS011;8121;51.418;6.998;2023-12-14T13:56:39;10.77;;;6.67;;
16033;SDS011;8121;51.418;6.998;2023-12-14T14:01:42;11.30;;;5.87;;
16033;SDS011;8121;51.418;6.998;2023-12-14T14:06:43;10.50;;;6.60;;
16033;SDS011;8121;51.418;6.998;2023-12-14T14:11:45;12.93;;;6.23;;
16033;SDS011;8121;51.418;6.998;2023-12-14T14:16:49;9.77;;;6.80;;
16033;SDS011;8121;51.418;6.998;2023-12-14T14:21:52;11.93;;;6.43;;
16033;SDS011;8121;51.418;6.998;2023-12-14T14:26:53;11.20;;;7.43;;
16033;SDS011;8121;51.418;6.998;2023-12-14T14:43:33;15.50;;;8.00;;
16033;SDS011;8121;51.418;6.998;2023-12-14T14:48:35;12.97;;;7.50;;
16033;SDS011;8121;51.418;6.998;2023-12-14T14:53:37;13.50;;;7.77;;
16033;SDS011;8121;51.418;6.998;2023-12-14T14:58:43;14.33;;;6.73;;
16033;SDS011;8121;51.418;6.998;2023-12-14T15:03:46;11.03;;;7.80;;
16033;SDS011;8121;51.418;6.998;2023-12-14T15:08:47;12.20;;;7.63;;
16033;SDS011;8121;51.418;6.998;2023-12-14T15:13:50;10.23;;;7.27;;
16033;SDS011;8121;51.418;6.998;2023-12-14T15:18:51;9.03;;;6.67;;
16033;SDS011;8121;51.418;6.998;2023-12-14T15:23:53;11.90;;;6.67;;
16033;SDS011;8121;51.418;6.998;2023-12-14T15:28:56;10.87;;;6.20;;
16033;SDS011;8121;51.418;6.998;2023-12-14T15:33:58;12.40;;;7.03;;
16033;SDS011;8121;51.418;6.998;2023-12-14T15:39:01;6.63;;;4.70;;
16033;SDS011;8121;51.418;6.998;2023-12-14T15:44:05;7.80;;;5.13;;
16033;SDS011;8121;51.418;6.998;2023-12-14T15:49:07;19.70;;;7.93;;
16033;SDS011;8121;51.418;6.998;2023-12-14T15:54:08;5.10;;;4.33;;
16033;SDS011;8121;51.418;6.998;2023-12-14T15:59:11;6.30;;;4.57;;
16033;SDS011;8121;51.418;6.998;2023-12-14T16:04:13;5.70;;;4.00;;
16033;SDS011;8121;51.418;6.998;2023-12-14T16:09:14;9.00;;;5.73;;
16033;SDS011;8121;51.418;6.998;2023-12-14T16:14:17;9.13;;;6.00;;
16033;SDS011;8121;51.418;6.998;2023-12-14T16:19:19;6.30;;;4.50;;
16033;SDS011;8121;51.418;6.998;2023-12-14T16:24:20;12.83;;;6.77;;
16033;SDS011;8121;51.418;6.998;2023-12-14T16:29:24;15.23;;;8.03;;
16033;SDS011;8121;51.418;6.998;2023-12-14T16:34:26;8.57;;;4.70;;
16033;SDS011;8121;51.418;6.998;2023-12-14T16:39:28;6.07;;;4.70;;
16033;SDS011;8121;51.418;6.998;2023-12-14T16:44:31;6.87;;;5.10;;
16033;SDS011;8121;51.418;6.998;2023-12-14T16:49:33;12.87;;;7.53;;
16033;SDS011;8121;51.418;6.998;2023-12-14T16:54:35;13.63;;;7.10;;
16033;SDS011;8121;51.418;6.998;2023-12-14T16:59:38;13.50;;;7.83;;
16033;SDS011;8121;51.418;6.998;2023-12-14T17:04:42;6.60;;;4.70;;
16033;SDS011;8121;51.418;6.998;2023-12-14T17:09:43;5.73;;;4.10;;
16033;SDS011;8121;51.418;6.998;2023-12-14T17:14:46;6.17;;;3.90;;
16033;SDS011;8121;51.418;6.998;2023-12-14T17:19:48;5.10;;;4.20;;
16033;SDS011;8121;51.418;6.998;2023-12-14T17:24:49;11.37;;;6.57;;
16033;SDS011;8121;51.418;6.998;2023-12-14T17:29:52;13.43;;;7.70;;
16033;SDS011;8121;51.418;6.998;2023-12-14T17:34:53;15.20;;;8.10;;
16033;SDS011;8121;51.418;6.998;2023-12-14T17:39:55;6.13;;;4.93;;
16033;SDS011;8121;51.418;6.998;2023-12-14T17:44:58;14.83;;;5.20;;
16033;SDS011;8121;51.418;6.998;2023-12-14T17:49:59;7.00;;;4.93;;
16033;SDS011;8121;51.418;6.998;2023-12-14T17:55:01;8.57;;;5.40;;
16033;SDS011;8121;51.418;6.998;2023-12-14T18:00:05;5.40;;;4.10;;
16033;SDS011;8121;51.418;6.998;2023-12-14T18:05:07;6.70;;;4.17;;
16033;SDS011;8121;51.418;6.998;2023-12-14T18:10:09;5.90;;;4.40;;
16033;SDS011;8121;51.418;6.998;2023-12-14T18:15:15;5.53;;;4.10;;
16033;SDS011;8121;51.418;6.998;2023-12-14T18:20:16;9.20;;;4.90;;
16033;SDS011;8121;51.418;6.998;2023-12-14T18:25:18;12.00;;;6.80;;
16033;SDS011;8121;51.418;6.998;2023-12-14T18:30:23;5.07;;;4.50;;
16033;SDS011;8121;51.418;6.998;2023-12-14T18:35:25;7.80;;;6.20;;
16033;SDS011;8121;51.418;6.998;2023-12-14T18:40:26;6.37;;;4.67;;
16033;SDS011;8121;51.418;6.998;2023-12-14T18:45:30;7.27;;;5.70;;
16033;SDS011;8121;51.418;6.998;2023-12-14T18:50:31;8.47;;;6.00;;
16033;SDS011;8121;51.418;6.998;2023-12-14T18:55:33;8.07;;;5.70;;
16033;SDS011;8121;51.418;6.998;2023-12-14T19:00:37;6.63;;;4.43;;
16033;SDS011;8121;51.418;6.998;2023-12-14T19:05:38;13.63;;;6.77;;
16033;SDS011;8121;51.418;6.998;2023-12-14T19:10:40;8.33;;;6.20;;
16033;SDS011;8121;51.418;6.998;2023-12-14T19:15:43;7.10;;;5.10;;
16033;SDS011;8121;51.418;6.998;2023-12-14T19:20:45;10.53;;;6.23;;
16033;SDS011;8121;51.418;6.998;2023-12-14T19:25:46;13.17;;;7.70;;
16033;SDS011;8121;51.418;6.998;2023-12-14T19:30:49;9.40;;;6.30;;
16033;SDS011;8121;51.418;6.998;2023-12-14T19:35:51;6.63;;;4.97;;
16033;SDS011;8121;51.418;6.998;2023-12-14T19:40:52;8.07;;;5.30;;
16033;SDS011;8121;51.418;6.998;2023-12-14T19:45:55;9.73;;;6.30;;
16033;SDS011;8121;51.418;6.998;2023-12-14T19:50:57;13.23;;;6.80;;
16033;SDS011;8121;51.418;6.998;2023-12-14T19:55:59;8.63;;;6.30;;
16033;SDS011;8121;51.418;6.998;2023-12-14T20:01:02;15.80;;;8.73;;
16033;SDS011;8121;51.418;6.998;2023-12-14T20:06:04;7.53;;;6.10;;
16033;SDS011;8121;51.418;6.998;2023-12-14T20:11:06;10.07;;;5.43;;
16033;SDS011;8121;51.418;6.998;2023-12-14T20:16:09;7.87;;;5.97;;
16033;SDS011;8121;51.418;6.998;2023-12-14T20:21:10;8.20;;;6.77;;
16033;SDS011;8121;51.418;6.998;2023-12-14T20:26:18;8.90;;;5.03;;
16033;SDS011;8121;51.418;6.998;2023-12-14T20:31:21;8.00;;;6.23;;
16033;SDS011;8121;51.418;6.998;2023-12-14T20:36:23;11.93;;;6.00;;
16033;SDS011;8121;51.418;6.998;2023-12-14T20:41:24;7.50;;;5.63;;
16033;SDS011;8121;51.418;6.998;2023-12-14T20:46:27;13.20;;;8.27;;
16033;SDS011;8121;51.418;6.998;2023-12-14T20:51:29;15.90;;;8.03;;
16033;SDS011;8121;51.418;6.998;2023-12-14T20:56:30;11.27;;;7.13;;
16033;SDS011;8121;51.418;6.998;2023-12-14T21:01:33;10.27;;;6.57;;
16033;SDS011;8121;51.418;6.998;2023-12-14T21:06:35;16.57;;;8.33;;
16033;SDS011;8121;51.418;6.998;2023-12-14T21:11:36;16.57;;;9.27;;
16033;SDS011;8121;51.418;6.998;2023-12-14T21:16:39;8.80;;;5.80;;
16033;SDS011;8121;51.418;6.998;2023-12-14T21:21:41;16.60;;;9.70;;
16033;SDS011;8121;51.418;6.998;2023-12-14T21:26:42;21.40;;;11.40;;
16033;SDS011;8121;51.418;6.998;2023-12-14T21:32:06;10.70;;;7.23;;
16033;SDS011;8121;51.418;6.998;2023-12-14T21:37:08;10.70;;;6.67;;
16033;SDS011;8121;51.418;6.998;2023-12-14T21:42:09;14.27;;;7.07;;
16033;SDS011;8121;51.418;6.998;2023-12-14T21:47:12;11.90;;;6.10;;
16033;SDS011;8121;51.418;6.998;2023-12-14T21:52:14;17.70;;;9.90;;
16033;SDS011;8121;51.418;6.998;2023-12-14T21:57:16;11.43;;;7.07;;
16033;SDS011;8121;51.418;6.998;2023-12-14T22:02:18;10.23;;;6.20;;
16033;SDS011;8121;51.418;6.998;2023-12-14T22:07:20;12.00;;;7.23;;
16033;SDS011;8121;51.418;6.998;2023-12-14T22:12:22;13.53;;;8.00;;
16033;SDS011;8121;51.418;6.998;2023-12-14T22:17:25;11.73;;;7.37;;
16033;SDS011;8121;51.418;6.998;2023-12-14T22:22:26;11.67;;;6.90;;
16033;SDS011;8121;51.418;6.998;2023-12-14T22:27:28;12.77;;;8.70;;
16033;SDS011;8121;51.418;6.998;2023-12-14T22:32:31;9.83;;;6.40;;
16033;SDS011;8121;51.418;6.998;2023-12-14T22:37:32;12.03;;;6.90;;
16033;SDS011;8121;51.418;6.998;2023-12-14T22:42:34;14.40;;;8.00;;
16033;SDS011;8121;51.418;6.998;2023-12-14T22:47:37;9.20;;;6.13;;
16033;SDS011;8121;51.418;6.998;2023-12-14T22:52:39;9.60;;;6.57;;
16033;SDS011;8121;51.418;6.998;2023-12-14T22:57:40;12.60;;;7.50;;
16033;SDS011;8121;51.418;6.998;2023-12-14T23:02:43;13.20;;;7.83;;
16033;SDS011;8121;51.418;6.998;2023-12-14T23:07:45;8.53;;;5.77;;
16033;SDS011;8121;51.418;6.998;2023-12-14T23:12:46;10.90;;;6.57;;
16033;SDS011;8121;51.418;6.998;2023-12-14T23:17:49;11.30;;;6.40;;
16033;SDS011;8121;51.418;6.998;2023-12-14T23:22:54;10.47;;;5.83;;
16033;SDS011;8121;51.418;6.998;2023-12-14T23:27:55;6.40;;;5.30;;
16033;SDS011;8121;51.418;6.998;2023-12-14T23:32:59;14.67;;;8.67;;
16033;SDS011;8121;51.418;6.998;2023-12-14T23:38:00;11.70;;;7.70;;
16033;SDS011;8121;51.418;6.998;2023-12-14T23:43:02;13.37;;;8.57;;
16033;SDS011;8121;51.418;6.998;2023-12-14T23:48:05;11.90;;;7.37;;
16033;SDS011;8121;51.418;6.998;2023-12-14T23:53:06;12.23;;;7.33;;
16033;SDS011;8121;51.418;6.998;2023-12-14T23:58:08;10.70;;;7.30;;
